createdAt,value
2017-08-26T00:00:12.377Z,99.99
2017-08-26T00:01:12.368Z,99.99
2017-08-26T00:02:12.364Z,99.99
2017-08-26T00:03:12.687Z,99.99
2017-08-26T00:04:12.689Z,99.99
2017-08-26T00:05:12.680Z,99.99
2017-08-26T00:06:12.682Z,99.99
2017-08-26T00:07:12.673Z,99.99
2017-08-26T00:08:12.670Z,99.99
2017-08-26T00:09:12.665Z,99.99
2017-08-26T00:10:12.659Z,99.99
2017-08-26T00:11:12.663Z,99.99
2017-08-26T00:12:12.650Z,99.99
2017-08-26T00:13:12.697Z,99.99
2017-08-26T00:14:12.337Z,99.99
2017-08-26T00:15:12.310Z,99.99
2017-08-26T00:16:12.305Z,99.99
2017-08-26T00:17:12.625Z,99.99
2017-08-26T00:18:12.296Z,99.99
2017-08-26T00:19:12.314Z,99.99
2017-08-26T00:20:12.292Z,99.99
2017-08-26T00:21:12.283Z,99.99
2017-08-26T00:22:12.631Z,99.99
2017-08-26T00:23:12.273Z,99.99
2017-08-26T00:24:12.271Z,99.99
2017-08-26T00:25:12.270Z,99.99
2017-08-26T00:26:12.262Z,99.99
2017-08-26T00:27:12.258Z,99.99
2017-08-26T00:28:12.262Z,99.99
2017-08-26T00:29:12.267Z,99.99
2017-08-26T00:30:12.572Z,99.99
2017-08-26T00:31:12.241Z,99.99
2017-08-26T00:32:12.251Z,99.99
2017-08-26T00:33:12.230Z,99.99
2017-08-26T00:34:12.223Z,99.99
2017-08-26T00:35:12.219Z,99.99
2017-08-26T00:36:12.218Z,99.99
2017-08-26T00:37:12.542Z,99.99
2017-08-26T00:38:12.206Z,99.99
2017-08-26T00:39:12.202Z,99.99
2017-08-26T00:40:12.197Z,99.99
2017-08-26T00:41:12.204Z,99.99
2017-08-26T00:42:12.199Z,99.99
2017-08-26T00:43:12.184Z,99.99
2017-08-26T00:44:12.517Z,99.99
2017-08-26T00:45:12.177Z,99.99
2017-08-26T00:46:12.499Z,99.99
2017-08-26T00:47:12.165Z,99.99
2017-08-26T00:48:12.490Z,99.99
2017-08-26T00:49:12.484Z,99.99
2017-08-26T00:50:12.152Z,99.99
2017-08-26T00:51:12.482Z,99.99
2017-08-26T00:52:12.159Z,99.99
2017-08-26T00:53:12.135Z,99.99
2017-08-26T00:54:12.134Z,99.99
2017-08-26T00:55:12.147Z,99.99
2017-08-26T00:56:12.454Z,99.99
2017-08-26T00:57:12.121Z,99.99
2017-08-26T00:58:12.464Z,99.99
2017-08-26T00:59:12.436Z,99.99
2017-08-26T01:00:12.103Z,99.99
2017-08-26T01:01:12.101Z,99.99
2017-08-26T01:02:12.427Z,99.99
2017-08-26T01:03:12.092Z,99.99
2017-08-26T01:04:12.456Z,99.99
2017-08-26T01:05:12.408Z,99.99
2017-08-26T01:06:12.075Z,99.99
2017-08-26T01:07:12.399Z,99.99
2017-08-26T01:08:12.076Z,99.99
2017-08-26T01:09:12.061Z,99.99
2017-08-26T01:10:12.072Z,99.99
2017-08-26T01:11:12.052Z,99.99
2017-08-26T01:12:12.049Z,99.99
2017-08-26T01:13:12.370Z,99.99
2017-08-26T01:14:12.038Z,99.99
2017-08-26T01:15:12.059Z,99.99
2017-08-26T01:16:12.356Z,99.99
2017-08-26T01:17:12.026Z,99.99
2017-08-26T01:18:12.020Z,99.99
2017-08-26T01:19:12.014Z,99.99
2017-08-26T01:20:12.011Z,99.99
2017-08-26T01:21:12.333Z,99.99
2017-08-26T01:22:12.000Z,99.99
2017-08-26T01:23:11.995Z,99.99
2017-08-26T01:24:11.991Z,99.99
2017-08-26T01:25:11.991Z,99.99
2017-08-26T01:26:12.309Z,99.99
2017-08-26T01:27:11.977Z,99.99
2017-08-26T01:28:12.305Z,99.99
2017-08-26T01:29:11.968Z,99.99
2017-08-26T01:30:11.977Z,99.99
2017-08-26T01:31:11.959Z,99.99
2017-08-26T01:32:11.956Z,99.99
2017-08-26T01:33:12.279Z,99.99
2017-08-26T01:34:11.946Z,99.99
2017-08-26T01:35:11.940Z,99.99
2017-08-26T01:36:11.937Z,99.99
2017-08-26T01:37:11.932Z,99.99
2017-08-26T01:38:12.267Z,99.99
2017-08-26T01:39:12.254Z,99.99
2017-08-26T01:40:12.253Z,99.99
2017-08-26T01:41:11.913Z,99.99
2017-08-26T01:42:12.273Z,99.99
2017-08-26T01:43:11.902Z,99.99
2017-08-26T01:44:11.927Z,99.99
2017-08-26T01:45:11.895Z,99.99
2017-08-26T01:46:11.892Z,99.99
2017-08-26T01:47:11.900Z,99.99
2017-08-26T01:48:11.882Z,99.99
2017-08-26T01:49:12.205Z,99.99
2017-08-26T01:50:11.888Z,99.99
2017-08-26T01:51:11.865Z,99.99
2017-08-26T01:52:11.875Z,99.99
2017-08-26T01:53:11.857Z,99.99
2017-08-26T01:54:11.853Z,99.99
2017-08-26T01:55:11.847Z,99.99
2017-08-26T01:56:12.176Z,99.99
2017-08-26T01:57:11.840Z,99.99
2017-08-26T01:58:12.163Z,99.99
2017-08-26T01:59:11.829Z,99.99
2017-08-26T02:00:11.826Z,99.99
2017-08-26T02:01:11.937Z,99.99
2017-08-26T02:02:11.821Z,99.99
2017-08-26T02:03:11.861Z,99.99
2017-08-26T02:04:11.823Z,99.99
2017-08-26T02:05:11.805Z,99.99
2017-08-26T02:06:11.800Z,99.99
2017-08-26T02:07:12.121Z,99.99
2017-08-26T02:08:11.791Z,99.99
2017-08-26T02:09:12.134Z,99.99
2017-08-26T02:10:11.779Z,99.99
2017-08-26T02:11:11.776Z,99.99
2017-08-26T02:12:11.774Z,99.99
2017-08-26T02:13:11.768Z,99.99
2017-08-26T02:14:11.764Z,99.99
2017-08-26T02:15:12.094Z,99.99
2017-08-26T02:16:11.754Z,99.99
2017-08-26T02:17:11.749Z,99.99
2017-08-26T02:18:12.086Z,99.99
2017-08-26T02:19:11.740Z,99.99
2017-08-26T02:20:12.078Z,99.99
2017-08-26T02:21:11.733Z,99.99
2017-08-26T02:22:11.727Z,99.99
2017-08-26T02:23:11.724Z,99.99
2017-08-26T02:24:12.066Z,99.99
2017-08-26T02:25:11.715Z,99.99
2017-08-26T02:26:11.712Z,99.99
2017-08-26T02:27:11.725Z,99.99
2017-08-26T02:28:11.717Z,99.99
2017-08-26T02:29:12.030Z,99.99
2017-08-26T02:30:11.694Z,99.99
2017-08-26T02:31:12.016Z,99.99
2017-08-26T02:32:12.035Z,99.99
2017-08-26T02:33:11.680Z,99.99
2017-08-26T02:34:11.677Z,99.99
2017-08-26T02:35:11.669Z,99.99
2017-08-26T02:36:11.992Z,99.99
2017-08-26T02:37:11.670Z,99.99
2017-08-26T02:38:11.673Z,99.99
2017-08-26T02:39:11.653Z,99.99
2017-08-26T02:40:11.647Z,99.99
2017-08-26T02:41:11.666Z,99.99
2017-08-26T02:42:11.969Z,99.99
2017-08-26T02:43:11.636Z,99.99
2017-08-26T02:44:11.634Z,99.99
2017-08-26T02:45:11.631Z,99.99
2017-08-26T02:46:11.634Z,99.99
2017-08-26T02:47:11.621Z,99.99
2017-08-26T02:48:11.640Z,99.99
2017-08-26T02:49:11.613Z,99.99
2017-08-26T02:50:11.934Z,99.99
2017-08-26T02:51:11.933Z,99.99
2017-08-26T02:52:11.932Z,99.99
2017-08-26T02:53:11.600Z,99.99
2017-08-26T02:54:11.613Z,99.99
2017-08-26T02:55:11.589Z,99.99
2017-08-26T02:56:11.583Z,99.99
2017-08-26T02:57:11.580Z,99.99
2017-08-26T02:58:11.591Z,99.99
2017-08-26T02:59:11.573Z,99.99
2017-08-26T03:00:11.909Z,99.99
2017-08-26T03:01:11.564Z,99.99
2017-08-26T03:02:11.889Z,99.99
2017-08-26T03:03:11.889Z,99.99
2017-08-26T03:04:11.569Z,99.99
2017-08-26T03:05:11.547Z,99.99
2017-08-26T03:06:11.544Z,99.99
2017-08-26T03:07:11.539Z,99.99
2017-08-26T03:08:11.537Z,99.99
2017-08-26T03:09:11.860Z,99.99
2017-08-26T03:10:11.856Z,99.99
2017-08-26T03:11:11.874Z,99.99
2017-08-26T03:12:11.847Z,99.99
2017-08-26T03:13:11.519Z,99.99
2017-08-26T03:14:11.552Z,99.99
2017-08-26T03:15:11.509Z,99.99
2017-08-26T03:16:11.859Z,99.99
2017-08-26T03:17:11.511Z,99.99
2017-08-26T03:18:11.505Z,99.99
2017-08-26T03:19:11.490Z,99.99
2017-08-26T03:20:11.487Z,99.99
2017-08-26T03:21:11.812Z,99.99
2017-08-26T03:22:11.810Z,99.99
2017-08-26T03:23:11.805Z,99.99
2017-08-26T03:24:11.816Z,99.99
2017-08-26T03:25:11.468Z,99.99
2017-08-26T03:26:11.465Z,99.99
2017-08-26T03:27:11.805Z,99.99
2017-08-26T03:28:11.457Z,99.99
2017-08-26T03:29:11.452Z,99.99
2017-08-26T03:30:11.775Z,99.99
2017-08-26T03:31:11.454Z,99.99
2017-08-26T03:32:11.441Z,99.99
2017-08-26T03:33:11.435Z,99.99
2017-08-26T03:34:11.431Z,99.99
2017-08-26T03:35:11.448Z,99.99
2017-08-26T03:36:11.429Z,99.99
2017-08-26T03:37:11.750Z,99.99
2017-08-26T03:38:11.743Z,99.99
2017-08-26T03:39:11.431Z,99.99
2017-08-26T03:40:11.406Z,99.99
2017-08-26T03:41:11.401Z,99.99
2017-08-26T03:42:11.401Z,99.99
2017-08-26T03:43:11.399Z,99.99
2017-08-26T03:44:11.399Z,99.99
2017-08-26T03:45:11.408Z,99.99
2017-08-26T03:46:11.383Z,99.99
2017-08-26T03:47:11.383Z,99.99
2017-08-26T03:48:11.706Z,99.99
2017-08-26T03:49:11.703Z,99.99
2017-08-26T03:50:11.371Z,99.99
2017-08-26T03:51:11.693Z,99.99
2017-08-26T03:52:11.696Z,99.99
2017-08-26T03:53:11.360Z,99.99
2017-08-26T03:54:11.358Z,99.99
2017-08-26T03:55:11.678Z,99.99
2017-08-26T03:56:11.348Z,99.99
2017-08-26T03:57:11.671Z,99.99
2017-08-26T03:58:11.340Z,99.99
2017-08-26T03:59:11.663Z,99.99
2017-08-26T04:00:11.354Z,99.99
2017-08-26T04:01:11.331Z,99.99
2017-08-26T04:02:11.323Z,99.99
2017-08-26T04:03:11.658Z,99.99
2017-08-26T04:04:11.322Z,99.99
2017-08-26T04:05:11.639Z,99.99
2017-08-26T04:06:11.318Z,99.99
2017-08-26T04:07:11.306Z,99.99
2017-08-26T04:08:11.629Z,99.99
2017-08-26T04:09:11.299Z,99.99
2017-08-26T04:10:11.309Z,99.99
2017-08-26T04:11:11.288Z,99.99
2017-08-26T04:12:11.296Z,99.99
2017-08-26T04:13:11.284Z,99.99
2017-08-26T04:14:11.279Z,99.99
2017-08-26T04:15:11.614Z,99.99
2017-08-26T04:16:11.271Z,99.99
2017-08-26T04:17:11.266Z,99.99
2017-08-26T04:18:11.605Z,99.99
2017-08-26T04:19:11.274Z,99.99
2017-08-26T04:20:11.257Z,99.99
2017-08-26T04:21:11.267Z,99.99
2017-08-26T04:22:11.251Z,99.99
2017-08-26T04:23:11.579Z,99.99
2017-08-26T04:24:11.568Z,99.99
2017-08-26T04:25:11.241Z,99.99
2017-08-26T04:26:11.271Z,99.99
2017-08-26T04:27:11.231Z,99.99
2017-08-26T04:28:11.226Z,99.99
2017-08-26T04:29:11.558Z,99.99
2017-08-26T04:30:11.264Z,99.99
2017-08-26T04:31:11.217Z,99.99
2017-08-26T04:32:11.541Z,99.99
2017-08-26T04:33:11.553Z,99.99
2017-08-26T04:34:11.210Z,99.99
2017-08-26T04:35:11.216Z,99.99
2017-08-26T04:36:11.197Z,99.99
2017-08-26T04:37:11.193Z,99.99
2017-08-26T04:38:11.231Z,99.99
2017-08-26T04:39:11.186Z,99.99
2017-08-26T04:40:11.185Z,99.99
2017-08-26T04:41:11.180Z,99.99
2017-08-26T04:42:11.173Z,99.99
2017-08-26T04:43:11.508Z,99.99
2017-08-26T04:44:11.167Z,99.99
2017-08-26T04:45:11.165Z,99.99
2017-08-26T04:46:11.491Z,99.99
2017-08-26T04:47:11.171Z,99.99
2017-08-26T04:48:11.152Z,99.99
2017-08-26T04:49:11.476Z,99.99
2017-08-26T04:50:11.492Z,99.99
2017-08-26T04:51:11.160Z,99.99
2017-08-26T04:52:11.138Z,99.99
2017-08-26T04:53:11.133Z,99.99
2017-08-26T04:54:11.482Z,99.99
2017-08-26T04:55:11.457Z,99.99
2017-08-26T04:56:11.123Z,99.99
2017-08-26T04:57:11.126Z,99.99
2017-08-26T04:58:11.115Z,99.99
2017-08-26T04:59:11.120Z,99.99
2017-08-26T05:00:11.109Z,99.99
2017-08-26T05:01:11.103Z,99.99
2017-08-26T05:02:11.124Z,99.99
2017-08-26T05:03:11.424Z,99.99
2017-08-26T05:04:11.419Z,99.99
2017-08-26T05:05:11.415Z,99.99
2017-08-26T05:06:11.082Z,99.99
2017-08-26T05:07:11.407Z,99.99
2017-08-26T05:08:11.424Z,99.99
2017-08-26T05:09:11.073Z,99.99
2017-08-26T05:10:12.486Z,99.99
2017-08-26T05:11:11.065Z,99.99
2017-08-26T05:12:11.389Z,99.99
2017-08-26T05:13:11.057Z,99.99
2017-08-26T05:14:11.050Z,99.99
2017-08-26T05:15:11.052Z,99.99
2017-08-26T05:16:11.045Z,99.99
2017-08-26T05:17:11.370Z,99.99
2017-08-26T05:18:11.038Z,99.99
2017-08-26T05:19:11.562Z,99.99
2017-08-26T05:20:11.030Z,99.99
2017-08-26T05:21:11.025Z,99.99
2017-08-26T05:22:11.030Z,99.99
2017-08-26T05:23:11.017Z,99.99
2017-08-26T05:24:11.014Z,99.99
2017-08-26T05:25:11.362Z,99.99
2017-08-26T05:26:11.003Z,99.99
2017-08-26T05:27:11.003Z,99.99
2017-08-26T05:28:10.998Z,99.99
2017-08-26T05:29:11.325Z,99.99
2017-08-26T05:30:10.987Z,99.99
2017-08-26T05:31:10.986Z,99.99
2017-08-26T05:32:11.311Z,99.99
2017-08-26T05:33:11.305Z,99.99
2017-08-26T05:34:11.316Z,99.99
2017-08-26T05:35:10.967Z,99.99
2017-08-26T05:36:10.984Z,99.99
2017-08-26T05:37:10.963Z,99.99
2017-08-26T05:38:10.979Z,99.99
2017-08-26T05:39:10.953Z,99.99
2017-08-26T05:40:10.950Z,99.99
2017-08-26T05:41:10.942Z,99.99
2017-08-26T05:42:11.267Z,99.99
2017-08-26T05:43:11.265Z,99.99
2017-08-26T05:44:10.936Z,99.99
2017-08-26T05:45:10.929Z,99.99
2017-08-26T05:46:11.276Z,99.99
2017-08-26T05:47:10.925Z,99.99
2017-08-26T05:48:11.273Z,99.99
2017-08-26T05:49:10.914Z,99.99
2017-08-26T05:50:11.246Z,99.99
2017-08-26T05:51:10.907Z,99.99
2017-08-26T05:52:10.907Z,99.99
2017-08-26T05:53:10.900Z,99.99
2017-08-26T05:54:10.897Z,99.99
2017-08-26T05:55:10.893Z,99.99
2017-08-26T05:56:10.891Z,99.99
2017-08-26T05:57:11.216Z,99.99
2017-08-26T05:58:10.882Z,99.99
2017-08-26T05:59:11.212Z,99.99
2017-08-26T06:00:10.877Z,99.99
2017-08-26T06:01:11.203Z,99.99
2017-08-26T06:02:10.869Z,99.99
2017-08-26T06:03:10.869Z,99.99
2017-08-26T06:04:10.863Z,99.99
2017-08-26T06:05:10.857Z,99.99
2017-08-26T06:06:10.851Z,99.99
2017-08-26T06:07:10.861Z,99.99
2017-08-26T06:08:10.846Z,99.99
2017-08-26T06:09:10.845Z,99.99
2017-08-26T06:10:11.169Z,99.99
2017-08-26T06:11:10.839Z,99.99
2017-08-26T06:12:10.834Z,99.99
2017-08-26T06:13:10.833Z,99.99
2017-08-26T06:14:11.158Z,99.99
2017-08-26T06:15:10.824Z,99.99
2017-08-26T06:16:11.164Z,99.99
2017-08-26T06:17:11.145Z,99.99
2017-08-26T06:18:10.823Z,99.99
2017-08-26T06:19:10.809Z,99.99
2017-08-26T06:20:11.133Z,99.99
2017-08-26T06:21:10.817Z,99.99
2017-08-26T06:22:10.802Z,99.99
2017-08-26T06:23:10.796Z,99.99
2017-08-26T06:24:11.142Z,99.99
2017-08-26T06:25:11.117Z,99.99
2017-08-26T06:26:10.809Z,99.99
2017-08-26T06:27:10.783Z,99.99
2017-08-26T06:28:10.781Z,99.99
2017-08-26T06:29:11.138Z,99.99
2017-08-26T06:30:10.773Z,99.99
2017-08-26T06:31:10.782Z,99.99
2017-08-26T06:32:10.766Z,99.99
2017-08-26T06:33:10.762Z,99.99
2017-08-26T06:34:10.760Z,99.99
2017-08-26T06:35:11.105Z,99.99
2017-08-26T06:36:13.632Z,99.99
2017-08-26T06:37:10.766Z,99.99
2017-08-26T06:38:10.747Z,99.99
2017-08-26T06:39:11.086Z,99.99
2017-08-26T06:40:11.070Z,99.99
2017-08-26T06:41:11.063Z,99.99
2017-08-26T06:42:11.071Z,99.99
2017-08-26T06:43:10.730Z,99.99
2017-08-26T06:44:10.727Z,99.99
2017-08-26T06:45:10.724Z,99.99
2017-08-26T06:46:10.720Z,99.99
2017-08-26T06:47:10.736Z,99.99
2017-08-26T06:48:11.042Z,99.99
2017-08-26T06:49:11.042Z,99.99
2017-08-26T06:50:11.037Z,99.99
2017-08-26T06:51:11.033Z,99.99
2017-08-26T06:52:10.702Z,99.99
2017-08-26T06:53:10.701Z,99.99
2017-08-26T06:54:11.023Z,99.99
2017-08-26T06:55:10.716Z,99.99
2017-08-26T06:56:10.691Z,99.99
2017-08-26T06:57:10.723Z,99.99
2017-08-26T06:58:10.700Z,99.99
2017-08-26T06:59:11.015Z,99.99
2017-08-26T07:00:11.010Z,99.99
2017-08-26T07:01:11.257Z,99.99
2017-08-26T07:02:10.683Z,99.99
2017-08-26T07:03:11.002Z,99.99
2017-08-26T07:04:11.004Z,99.99
2017-08-26T07:05:10.669Z,99.99
2017-08-26T07:06:10.999Z,99.99
2017-08-26T07:07:10.994Z,99.99
2017-08-26T07:08:10.992Z,99.99
2017-08-26T07:09:10.989Z,99.99
2017-08-26T07:10:10.992Z,99.99
2017-08-26T07:11:10.986Z,99.99
2017-08-26T07:12:10.999Z,99.99
2017-08-26T07:13:10.652Z,99.99
2017-08-26T07:14:10.650Z,99.99
2017-08-26T07:15:10.650Z,99.99
2017-08-26T07:16:10.975Z,99.99
2017-08-26T07:17:10.645Z,99.99
2017-08-26T07:18:10.981Z,99.99
2017-08-26T07:19:10.654Z,99.99
2017-08-26T07:20:10.971Z,99.99
2017-08-26T07:21:10.637Z,99.99
2017-08-26T07:22:10.640Z,99.99
2017-08-26T07:23:10.965Z,99.99
2017-08-26T07:24:10.633Z,99.99
2017-08-26T07:25:10.965Z,99.99
2017-08-26T07:26:10.630Z,99.99
2017-08-26T07:27:10.951Z,99.99
2017-08-26T07:28:10.952Z,99.99
2017-08-26T07:29:10.949Z,99.99
2017-08-26T07:30:10.621Z,99.99
2017-08-26T07:31:10.947Z,99.99
2017-08-26T07:32:10.622Z,99.99
2017-08-26T07:33:10.616Z,99.99
2017-08-26T07:34:10.614Z,99.99
2017-08-26T07:35:10.610Z,99.99
2017-08-26T07:36:10.623Z,99.99
2017-08-26T07:37:10.618Z,99.99
2017-08-26T07:38:10.603Z,99.99
2017-08-26T07:39:10.600Z,99.99
2017-08-26T07:40:10.600Z,99.99
2017-08-26T07:41:10.933Z,99.99
2017-08-26T07:42:10.794Z,99.99
2017-08-26T07:43:10.590Z,99.99
2017-08-26T07:44:10.604Z,99.99
2017-08-26T07:45:10.916Z,99.99
2017-08-26T07:46:10.584Z,99.99
2017-08-26T07:47:10.588Z,99.99
2017-08-26T07:48:10.579Z,99.99
2017-08-26T07:49:10.575Z,99.99
2017-08-26T07:50:10.572Z,99.99
2017-08-26T07:51:10.927Z,99.99
2017-08-26T07:52:10.898Z,99.99
2017-08-26T07:53:10.564Z,99.99
2017-08-26T07:54:10.569Z,99.99
2017-08-26T07:55:10.559Z,99.99
2017-08-26T07:56:10.569Z,99.99
2017-08-26T07:57:10.554Z,99.99
2017-08-26T07:58:10.554Z,99.99
2017-08-26T07:59:10.897Z,99.99
2017-08-26T08:00:10.876Z,99.99
2017-08-26T08:01:10.562Z,99.99
2017-08-26T08:02:10.541Z,99.99
2017-08-26T08:03:10.878Z,99.99
2017-08-26T08:04:10.899Z,99.99
2017-08-26T08:05:10.532Z,99.99
2017-08-26T08:06:10.532Z,99.99
2017-08-26T08:07:10.532Z,99.99
2017-08-26T08:08:10.544Z,99.99
2017-08-26T08:09:10.850Z,99.99
2017-08-26T08:10:10.520Z,99.99
2017-08-26T08:11:10.516Z,99.99
2017-08-26T08:12:10.514Z,99.99
2017-08-26T08:13:10.528Z,99.99
2017-08-26T08:14:10.509Z,99.99
2017-08-26T08:15:10.509Z,99.99
2017-08-26T08:16:10.846Z,99.99
2017-08-26T08:17:10.502Z,99.99
2017-08-26T08:18:10.826Z,99.99
2017-08-26T08:19:10.493Z,99.99
2017-08-26T08:20:10.823Z,99.99
2017-08-26T08:21:10.489Z,99.99
2017-08-26T08:22:10.487Z,99.99
2017-08-26T08:23:10.483Z,99.99
2017-08-26T08:24:10.480Z,99.99
2017-08-26T08:25:10.807Z,99.99
2017-08-26T08:26:10.475Z,99.99
2017-08-26T08:27:10.471Z,99.99
2017-08-26T08:28:10.470Z,99.99
2017-08-26T08:29:10.467Z,99.99
2017-08-26T08:30:10.793Z,99.99
2017-08-26T08:31:10.462Z,99.99
2017-08-26T08:32:10.788Z,99.99
2017-08-26T08:33:10.795Z,99.99
2017-08-26T08:34:10.454Z,99.99
2017-08-26T08:35:10.474Z,99.99
2017-08-26T08:36:10.782Z,99.99
2017-08-26T08:37:10.775Z,99.99
2017-08-26T08:38:10.443Z,99.99
2017-08-26T08:39:10.769Z,99.99
2017-08-26T08:40:10.766Z,99.99
2017-08-26T08:41:10.772Z,99.99
2017-08-26T08:42:10.766Z,99.99
2017-08-26T08:43:10.434Z,99.99
2017-08-26T08:44:10.431Z,99.99
2017-08-26T08:45:10.432Z,99.99
2017-08-26T08:46:10.755Z,99.99
2017-08-26T08:47:10.425Z,99.99
2017-08-26T08:48:10.423Z,99.99
2017-08-26T08:49:10.756Z,99.99
2017-08-26T08:50:10.421Z,99.99
2017-08-26T08:51:10.420Z,99.99
2017-08-26T08:52:10.764Z,99.99
2017-08-26T08:53:10.418Z,99.99
2017-08-26T08:54:10.757Z,99.99
2017-08-26T08:55:10.413Z,99.99
2017-08-26T08:56:10.759Z,99.99
2017-08-26T08:57:10.415Z,99.99
2017-08-26T08:58:10.741Z,99.99
2017-08-26T08:59:10.411Z,99.99
2017-08-26T09:00:10.412Z,99.99
2017-08-26T09:01:10.422Z,99.99
2017-08-26T09:02:10.433Z,99.99
2017-08-26T09:03:10.413Z,99.99
2017-08-26T09:04:10.433Z,99.99
2017-08-26T09:05:10.760Z,99.99
2017-08-26T09:06:10.416Z,99.99
2017-08-26T09:07:10.743Z,99.99
2017-08-26T09:08:10.418Z,99.99
2017-08-26T09:09:10.742Z,99.99
2017-08-26T09:10:10.742Z,99.99
2017-08-26T09:11:10.746Z,99.99
2017-08-26T09:12:10.419Z,99.99
2017-08-26T09:13:10.434Z,99.99
2017-08-26T09:14:10.419Z,99.99
2017-08-26T09:15:10.753Z,99.99
2017-08-26T09:16:10.421Z,99.99
2017-08-26T09:17:10.423Z,99.07
2017-08-26T09:18:10.755Z,93.75
2017-08-26T09:19:10.427Z,94.87
2017-08-26T09:20:10.426Z,95.93
2017-08-26T09:21:10.444Z,98.68
2017-08-26T09:22:10.435Z,99.99
2017-08-26T09:23:10.432Z,99.99
2017-08-26T09:24:10.758Z,99.41
2017-08-26T09:25:10.440Z,99.99
2017-08-26T09:26:10.436Z,98.73
2017-08-26T09:27:10.767Z,96.26
2017-08-26T09:28:10.439Z,96.84
2017-08-26T09:29:10.439Z,96.56
2017-08-26T09:30:10.443Z,96.56
2017-08-26T09:31:10.445Z,98.2
2017-08-26T09:32:10.446Z,99.07
2017-08-26T09:33:10.449Z,99.99
2017-08-26T09:34:10.449Z,98.39
2017-08-26T09:35:10.458Z,97.57
2017-08-26T09:36:10.784Z,95.64
2017-08-26T09:37:10.783Z,95.34
2017-08-26T09:38:10.457Z,94.86
2017-08-26T09:39:10.460Z,91.28
2017-08-26T09:40:10.790Z,91.53
2017-08-26T09:41:10.461Z,92.98
2017-08-26T09:42:10.463Z,93.46
2017-08-26T09:43:10.465Z,94.33
2017-08-26T09:44:10.488Z,95.06
2017-08-26T09:45:10.796Z,97.19
2017-08-26T09:46:10.469Z,97.09
2017-08-26T09:47:10.472Z,98.3
2017-08-26T09:48:10.802Z,99.94
2017-08-26T09:49:10.494Z,99.99
2017-08-26T09:50:10.806Z,99.99
2017-08-26T09:51:10.478Z,99.99
2017-08-26T09:52:10.480Z,99.07
2017-08-26T09:53:10.830Z,97.42
2017-08-26T09:54:10.482Z,96.89
2017-08-26T09:55:10.489Z,97.57
2017-08-26T09:56:10.487Z,97.67
2017-08-26T09:57:10.487Z,97.86
2017-08-26T09:58:10.819Z,96.51
2017-08-26T09:59:10.834Z,97.57
2017-08-26T10:00:10.826Z,96.07
2017-08-26T10:01:10.510Z,93.26
2017-08-26T10:02:10.494Z,92.88
2017-08-26T10:03:10.700Z,99.99
2017-08-26T10:04:10.501Z,98.68
2017-08-26T10:05:10.502Z,95.87
2017-08-26T10:06:10.502Z,94.81
2017-08-26T10:07:10.836Z,95.1
2017-08-26T10:08:10.839Z,93.31
2017-08-26T10:09:10.846Z,91.14
2017-08-26T10:10:10.532Z,88.47
2017-08-26T10:11:10.514Z,89.63
2017-08-26T10:12:10.536Z,85.47
2017-08-26T10:13:10.517Z,83.83
2017-08-26T10:14:10.528Z,85.57
2017-08-26T10:15:10.522Z,87.5
2017-08-26T10:16:10.525Z,89.44
2017-08-26T10:17:10.893Z,86.73
2017-08-26T10:18:10.528Z,84.21
2017-08-26T10:19:10.529Z,82.86
2017-08-26T10:20:10.881Z,81.98
2017-08-26T10:21:10.534Z,81.79
2017-08-26T10:22:10.865Z,79.95
2017-08-26T10:23:10.541Z,81.79
2017-08-26T10:24:10.540Z,84.41
2017-08-26T10:25:10.888Z,82.18
2017-08-26T10:26:10.546Z,82.47
2017-08-26T10:27:10.549Z,82.86
2017-08-26T10:28:10.882Z,81.02
2017-08-26T10:29:10.553Z,79.76
2017-08-26T10:30:10.891Z,80.44
2017-08-26T10:31:10.557Z,81.02
2017-08-26T10:32:10.904Z,81.5
2017-08-26T10:33:10.561Z,84.31
2017-08-26T10:34:10.576Z,82.57
2017-08-26T10:35:10.897Z,81.6
2017-08-26T10:36:10.571Z,81.79
2017-08-26T10:37:10.572Z,81.4
2017-08-26T10:38:10.589Z,81.98
2017-08-26T10:39:10.905Z,82.37
2017-08-26T10:40:10.580Z,81.5
2017-08-26T10:41:10.913Z,81.4
2017-08-26T10:42:10.921Z,80.57
2017-08-26T10:43:10.595Z,82.41
2017-08-26T10:44:10.590Z,82.7
2017-08-26T10:45:10.591Z,82.47
2017-08-26T10:46:10.594Z,81.5
2017-08-26T10:47:10.599Z,80.38
2017-08-26T10:48:10.933Z,81.12
2017-08-26T10:49:10.602Z,81.3
2017-08-26T10:50:10.941Z,81.7
2017-08-26T10:51:10.608Z,80.96
2017-08-26T10:52:10.609Z,81.79
2017-08-26T10:53:10.612Z,83.05
2017-08-26T10:54:10.614Z,82.37
2017-08-26T10:55:10.617Z,84.79
2017-08-26T10:56:10.640Z,86.96
2017-08-26T10:57:10.624Z,84.55
2017-08-26T10:58:10.954Z,83.67
2017-08-26T10:59:10.955Z,84.64
2017-08-26T11:00:10.630Z,85.13
2017-08-26T11:01:10.633Z,86.38
2017-08-26T11:02:10.644Z,85.07
2017-08-26T11:03:10.638Z,76.54
2017-08-26T11:04:10.973Z,78.77
2017-08-26T11:05:10.972Z,77.03
2017-08-26T11:06:10.986Z,78
2017-08-26T11:07:10.672Z,76.64
2017-08-26T11:08:11.000Z,73.35
2017-08-26T11:09:10.680Z,72.57
2017-08-26T11:10:10.678Z,69.37
2017-08-26T11:11:10.668Z,70.05
2017-08-26T11:12:10.663Z,71.41
2017-08-26T11:13:10.667Z,71.76
2017-08-26T11:14:10.669Z,71.66
2017-08-26T11:15:10.672Z,73.02
2017-08-26T11:16:10.676Z,73.31
2017-08-26T11:17:10.678Z,73.11
2017-08-26T11:18:11.017Z,73.89
2017-08-26T11:19:11.014Z,72.34
2017-08-26T11:20:11.054Z,74.96
2017-08-26T11:21:10.696Z,72.83
2017-08-26T11:22:10.695Z,74.18
2017-08-26T11:23:10.700Z,73.69
2017-08-26T11:24:10.697Z,75.15
2017-08-26T11:25:10.700Z,74.18
2017-08-26T11:26:11.047Z,74.66
2017-08-26T11:27:10.705Z,74.28
2017-08-26T11:28:10.710Z,70.11
2017-08-26T11:29:10.715Z,72.05
2017-08-26T11:30:10.716Z,73.11
2017-08-26T11:31:10.720Z,72.92
2017-08-26T11:32:10.738Z,73.99
2017-08-26T11:33:11.059Z,74.66
2017-08-26T11:34:11.057Z,74.57
2017-08-26T11:35:10.753Z,73.99
2017-08-26T11:36:10.737Z,76.35
2017-08-26T11:37:11.070Z,73.35
2017-08-26T11:38:10.738Z,76.64
2017-08-26T11:39:10.740Z,76.83
2017-08-26T11:40:10.766Z,74.41
2017-08-26T11:41:10.748Z,73.54
2017-08-26T11:42:11.081Z,73.35
2017-08-26T11:43:11.084Z,73.44
2017-08-26T11:44:11.102Z,73.83
2017-08-26T11:45:10.760Z,73.35
2017-08-26T11:46:10.766Z,72.57
2017-08-26T11:47:10.770Z,74.8
2017-08-26T11:48:11.097Z,77.03
2017-08-26T11:49:11.118Z,77.42
2017-08-26T11:50:10.772Z,75.96
2017-08-26T11:51:10.777Z,74.12
2017-08-26T11:52:11.113Z,74.99
2017-08-26T11:53:10.785Z,74.02
2017-08-26T11:54:10.786Z,73.35
2017-08-26T11:55:10.790Z,74.32
2017-08-26T11:56:10.800Z,74.74
2017-08-26T11:57:10.812Z,71.15
2017-08-26T11:58:10.800Z,71.02
2017-08-26T11:59:11.156Z,72.57
2017-08-26T12:00:10.827Z,74.06
2017-08-26T12:01:11.147Z,73.25
2017-08-26T12:02:10.832Z,73.15
2017-08-26T12:03:11.147Z,74.32
2017-08-26T12:04:10.819Z,70.05
2017-08-26T12:05:10.822Z,71.8
2017-08-26T12:06:11.158Z,69.57
2017-08-26T12:07:10.828Z,70.25
2017-08-26T12:08:11.162Z,70.15
2017-08-26T12:09:10.837Z,70.83
2017-08-26T12:10:10.839Z,71.5
2017-08-26T12:11:11.183Z,73.44
2017-08-26T12:12:11.179Z,71.99
2017-08-26T12:13:11.177Z,72.67
2017-08-26T12:14:11.198Z,72.57
2017-08-26T12:15:11.187Z,74.12
2017-08-26T12:16:11.210Z,75.96
2017-08-26T12:17:11.192Z,73.93
2017-08-26T12:18:10.865Z,73.35
2017-08-26T12:19:11.200Z,74.99
2017-08-26T12:20:10.874Z,74.6
2017-08-26T12:21:11.205Z,74.8
2017-08-26T12:22:10.879Z,75.28
2017-08-26T12:23:10.883Z,75.87
2017-08-26T12:24:10.886Z,74.41
2017-08-26T12:25:11.215Z,76.54
2017-08-26T12:26:10.889Z,75.67
2017-08-26T12:27:11.224Z,74.64
2017-08-26T12:28:10.917Z,75.09
2017-08-26T12:29:11.232Z,73.25
2017-08-26T12:30:10.905Z,73.54
2017-08-26T12:31:10.909Z,72.38
2017-08-26T12:32:10.911Z,73.83
2017-08-26T12:33:10.921Z,70.34
2017-08-26T12:34:10.952Z,71.7
2017-08-26T12:35:10.922Z,72.77
2017-08-26T12:36:10.928Z,73.44
2017-08-26T12:37:10.944Z,73.64
2017-08-26T12:38:10.930Z,74.12
2017-08-26T12:39:10.932Z,73.54
2017-08-26T12:40:11.276Z,73.96
2017-08-26T12:41:10.940Z,73.54
2017-08-26T12:42:10.944Z,74.12
2017-08-26T12:43:10.949Z,73.38
2017-08-26T12:44:10.995Z,72.41
2017-08-26T12:45:10.960Z,72.99
2017-08-26T12:46:11.290Z,73.09
2017-08-26T12:47:10.963Z,73.48
2017-08-26T12:48:11.297Z,73.19
2017-08-26T12:49:11.295Z,73.48
2017-08-26T12:50:10.970Z,73.38
2017-08-26T12:51:11.305Z,71.54
2017-08-26T12:52:11.321Z,71.64
2017-08-26T12:53:10.982Z,70.28